sensor_id;sensor_type;location;lat;lon;timestamp;P1;durP1;ratioP1;P2;durP2;ratioP2
1000;SDS011;489;47.806;12.858;2023-05-23T00:01:09;10.53;;;9.53;;
1000;SDS011;489;47.806;12.858;2023-05-23T00:03:13;12.20;;;10.97;;
1000;SDS011;489;47.806;12.858;2023-05-23T00:05:15;10.53;;;9.50;;
1000;SDS011;489;47.806;12.858;2023-05-23T00:07:18;11.10;;;10.00;;
1000;SDS011;489;47.806;12.858;2023-05-23T00:09:20;11.40;;;10.33;;
1000;SDS011;489;47.806;12.858;2023-05-23T00:11:23;10.63;;;9.63;;
1000;SDS011;489;47.806;12.858;2023-05-23T00:13:26;12.03;;;10.77;;
1000;SDS011;489;47.806;12.858;2023-05-23T00:15:28;11.50;;;10.30;;
1000;SDS011;489;47.806;12.858;2023-05-23T00:17:30;10.60;;;9.60;;
1000;SDS011;489;47.806;12.858;2023-05-23T00:19:32;12.57;;;11.27;;
1000;SDS011;489;47.806;12.858;2023-05-23T00:21:35;11.40;;;10.20;;
1000;SDS011;489;47.806;12.858;2023-05-23T00:23:37;10.20;;;9.30;;
1000;SDS011;489;47.806;12.858;2023-05-23T00:25:41;11.63;;;10.53;;
1000;SDS011;489;47.806;12.858;2023-05-23T00:27:49;11.07;;;9.87;;
1000;SDS011;489;47.806;12.858;2023-05-23T00:29:51;11.90;;;10.80;;
1000;SDS011;489;47.806;12.858;2023-05-23T00:31:53;11.37;;;10.27;;
1000;SDS011;489;47.806;12.858;2023-05-23T00:33:54;11.20;;;10.10;;
1000;SDS011;489;47.806;12.858;2023-05-23T00:35:57;10.97;;;9.90;;
1000;SDS011;489;47.806;12.858;2023-05-23T00:37:58;11.97;;;10.70;;
1000;SDS011;489;47.806;12.858;2023-05-23T00:40:01;10.47;;;9.47;;
1000;SDS011;489;47.806;12.858;2023-05-23T00:42:03;11.30;;;10.20;;
1000;SDS011;489;47.806;12.858;2023-05-23T00:44:07;12.13;;;10.90;;
1000;SDS011;489;47.806;12.858;2023-05-23T00:46:10;11.27;;;10.10;;
1000;SDS011;489;47.806;12.858;2023-05-23T00:48:12;12.40;;;11.10;;
1000;SDS011;489;47.806;12.858;2023-05-23T00:50:15;11.60;;;10.40;;
1000;SDS011;489;47.806;12.858;2023-05-23T00:52:17;12.00;;;10.80;;
1000;SDS011;489;47.806;12.858;2023-05-23T00:54:19;12.57;;;11.33;;
1000;SDS011;489;47.806;12.858;2023-05-23T00:56:25;12.27;;;11.03;;
1000;SDS011;489;47.806;12.858;2023-05-23T00:58:27;11.70;;;10.60;;
1000;SDS011;489;47.806;12.858;2023-05-23T01:00:30;11.63;;;10.53;;
1000;SDS011;489;47.806;12.858;2023-05-23T01:02:33;11.43;;;10.23;;
1000;SDS011;489;47.806;12.858;2023-05-23T01:04:35;10.80;;;9.70;;
1000;SDS011;489;47.806;12.858;2023-05-23T01:06:38;12.20;;;11.00;;
1000;SDS011;489;47.806;12.858;2023-05-23T01:08:40;11.00;;;10.00;;
1000;SDS011;489;47.806;12.858;2023-05-23T01:10:43;12.83;;;10.90;;
1000;SDS011;489;47.806;12.858;2023-05-23T01:12:59;11.70;;;10.50;;
1000;SDS011;489;47.806;12.858;2023-05-23T01:15:08;11.53;;;10.43;;
1000;SDS011;489;47.806;12.858;2023-05-23T01:17:14;11.63;;;10.53;;
1000;SDS011;489;47.806;12.858;2023-05-23T01:19:26;11.77;;;10.67;;
1000;SDS011;489;47.806;12.858;2023-05-23T01:21:40;11.57;;;10.47;;
1000;SDS011;489;47.806;12.858;2023-05-23T01:26:21;12.33;;;11.13;;
1000;SDS011;489;47.806;12.858;2023-05-23T01:28:35;12.23;;;10.93;;
1000;SDS011;489;47.806;12.858;2023-05-23T01:30:39;13.07;;;11.77;;
1000;SDS011;489;47.806;12.858;2023-05-23T01:32:41;12.57;;;11.33;;
1000;SDS011;489;47.806;12.858;2023-05-23T01:34:44;12.10;;;10.97;;
1000;SDS011;489;47.806;12.858;2023-05-23T01:36:48;11.43;;;10.30;;
1000;SDS011;489;47.806;12.858;2023-05-23T01:38:51;11.50;;;9.97;;
1000;SDS011;489;47.806;12.858;2023-05-23T01:40:53;13.97;;;11.23;;
1000;SDS011;489;47.806;12.858;2023-05-23T01:42:56;10.47;;;9.47;;
1000;SDS011;489;47.806;12.858;2023-05-23T01:45:03;11.20;;;10.00;;
1000;SDS011;489;47.806;12.858;2023-05-23T01:47:06;10.40;;;9.30;;
1000;SDS011;489;47.806;12.858;2023-05-23T01:49:10;10.70;;;9.63;;
1000;SDS011;489;47.806;12.858;2023-05-23T01:51:13;12.17;;;9.77;;
1000;SDS011;489;47.806;12.858;2023-05-23T01:53:19;11.13;;;10.03;;
1000;SDS011;489;47.806;12.858;2023-05-23T01:55:22;11.63;;;10.30;;
1000;SDS011;489;47.806;12.858;2023-05-23T01:57:25;11.00;;;10.00;;
1000;SDS011;489;47.806;12.858;2023-05-23T01:59:28;9.87;;;8.90;;
1000;SDS011;489;47.806;12.858;2023-05-23T02:01:32;11.43;;;10.20;;
1000;SDS011;489;47.806;12.858;2023-05-23T02:03:34;11.50;;;10.33;;
1000;SDS011;489;47.806;12.858;2023-05-23T02:05:37;10.93;;;9.93;;
1000;SDS011;489;47.806;12.858;2023-05-23T02:07:39;10.80;;;9.80;;
1000;SDS011;489;47.806;12.858;2023-05-23T02:09:41;12.00;;;10.80;;
1000;SDS011;489;47.806;12.858;2023-05-23T02:11:42;11.33;;;10.23;;
1000;SDS011;489;47.806;12.858;2023-05-23T02:13:45;12.13;;;10.90;;
1000;SDS011;489;47.806;12.858;2023-05-23T02:15:46;12.37;;;11.10;;
1000;SDS011;489;47.806;12.858;2023-05-23T02:17:51;13.10;;;11.80;;
1000;SDS011;489;47.806;12.858;2023-05-23T02:19:53;12.73;;;11.43;;
1000;SDS011;489;47.806;12.858;2023-05-23T02:21:56;13.53;;;12.17;;
1000;SDS011;489;47.806;12.858;2023-05-23T02:23:58;15.10;;;13.10;;
1000;SDS011;489;47.806;12.858;2023-05-23T02:25:59;13.03;;;11.90;;
1000;SDS011;489;47.806;12.858;2023-05-23T02:28:01;13.53;;;12.13;;
1000;SDS011;489;47.806;12.858;2023-05-23T02:30:04;13.50;;;12.13;;
1000;SDS011;489;47.806;12.858;2023-05-23T02:32:08;12.10;;;11.00;;
1000;SDS011;489;47.806;12.858;2023-05-23T02:34:11;12.27;;;11.03;;
1000;SDS011;489;47.806;12.858;2023-05-23T02:36:14;12.20;;;10.87;;
1000;SDS011;489;47.806;12.858;2023-05-23T02:38:15;13.00;;;11.80;;
1000;SDS011;489;47.806;12.858;2023-05-23T02:40:19;12.43;;;11.13;;
1000;SDS011;489;47.806;12.858;2023-05-23T02:42:21;11.93;;;10.70;;
1000;SDS011;489;47.806;12.858;2023-05-23T02:44:23;12.60;;;11.30;;
1000;SDS011;489;47.806;12.858;2023-05-23T02:46:25;12.10;;;10.80;;
1000;SDS011;489;47.806;12.858;2023-05-23T02:48:27;12.50;;;11.20;;
1000;SDS011;489;47.806;12.858;2023-05-23T02:50:30;12.60;;;11.30;;
1000;SDS011;489;47.806;12.858;2023-05-23T02:52:32;12.50;;;11.17;;
1000;SDS011;489;47.806;12.858;2023-05-23T02:54:34;13.10;;;11.73;;
1000;SDS011;489;47.806;12.858;2023-05-23T02:56:37;11.93;;;10.77;;
1000;SDS011;489;47.806;12.858;2023-05-23T02:58:40;11.93;;;10.73;;
1000;SDS011;489;47.806;12.858;2023-05-23T03:00:42;12.20;;;10.90;;
1000;SDS011;489;47.806;12.858;2023-05-23T03:02:44;14.83;;;11.10;;
1000;SDS011;489;47.806;12.858;2023-05-23T03:04:46;12.80;;;10.77;;
1000;SDS011;489;47.806;12.858;2023-05-23T03:06:50;11.97;;;10.77;;
1000;SDS011;489;47.806;12.858;2023-05-23T03:08:53;11.33;;;10.23;;
1000;SDS011;489;47.806;12.858;2023-05-23T03:10:56;11.30;;;10.10;;
1000;SDS011;489;47.806;12.858;2023-05-23T03:12:58;11.40;;;10.20;;
1000;SDS011;489;47.806;12.858;2023-05-23T03:15:00;11.03;;;9.80;;
1000;SDS011;489;47.806;12.858;2023-05-23T03:17:03;11.10;;;10.10;;
1000;SDS011;489;47.806;12.858;2023-05-23T03:19:05;11.67;;;10.53;;
1000;SDS011;489;47.806;12.858;2023-05-23T03:21:07;11.30;;;10.13;;
1000;SDS011;489;47.806;12.858;2023-05-23T03:23:10;10.10;;;9.10;;
1000;SDS011;489;47.806;12.858;2023-05-23T03:25:13;11.17;;;10.07;;
1000;SDS011;489;47.806;12.858;2023-05-23T03:27:16;11.83;;;10.63;;
1000;SDS011;489;47.806;12.858;2023-05-23T03:29:18;11.50;;;10.40;;
1000;SDS011;489;47.806;12.858;2023-05-23T03:31:21;11.37;;;10.27;;
1000;SDS011;489;47.806;12.858;2023-05-23T03:33:23;12.60;;;11.17;;
1000;SDS011;489;47.806;12.858;2023-05-23T03:35:26;10.37;;;9.37;;
1000;SDS011;489;47.806;12.858;2023-05-23T03:37:28;11.53;;;10.50;;
1000;SDS011;489;47.806;12.858;2023-05-23T03:39:31;10.97;;;9.30;;
1000;SDS011;489;47.806;12.858;2023-05-23T03:41:33;10.70;;;9.70;;
1000;SDS011;489;47.806;12.858;2023-05-23T03:43:35;10.43;;;9.43;;
1000;SDS011;489;47.806;12.858;2023-05-23T03:45:37;11.23;;;9.53;;
1000;SDS011;489;47.806;12.858;2023-05-23T03:47:45;11.47;;;10.30;;
1000;SDS011;489;47.806;12.858;2023-05-23T03:49:47;11.17;;;10.07;;
1000;SDS011;489;47.806;12.858;2023-05-23T03:51:50;11.00;;;9.97;;
1000;SDS011;489;47.806;12.858;2023-05-23T03:53:52;10.87;;;9.87;;
1000;SDS011;489;47.806;12.858;2023-05-23T03:55:56;11.73;;;10.30;;
1000;SDS011;489;47.806;12.858;2023-05-23T03:57:58;11.23;;;9.70;;
1000;SDS011;489;47.806;12.858;2023-05-23T04:00:01;11.27;;;10.20;;
1000;SDS011;489;47.806;12.858;2023-05-23T04:02:05;10.30;;;9.20;;
1000;SDS011;489;47.806;12.858;2023-05-23T04:04:09;11.07;;;10.00;;
1000;SDS011;489;47.806;12.858;2023-05-23T04:06:11;12.57;;;10.70;;
1000;SDS011;489;47.806;12.858;2023-05-23T04:08:14;10.93;;;9.10;;
1000;SDS011;489;47.806;12.858;2023-05-23T04:10:17;8.93;;;8.00;;
1000;SDS011;489;47.806;12.858;2023-05-23T04:12:21;10.40;;;9.23;;
1000;SDS011;489;47.806;12.858;2023-05-23T04:14:23;9.23;;;8.33;;
1000;SDS011;489;47.806;12.858;2023-05-23T04:16:26;9.70;;;8.70;;
1000;SDS011;489;47.806;12.858;2023-05-23T04:18:32;9.53;;;8.53;;
1000;SDS011;489;47.806;12.858;2023-05-23T04:20:35;9.73;;;8.73;;
1000;SDS011;489;47.806;12.858;2023-05-23T04:22:38;9.30;;;8.40;;
1000;SDS011;489;47.806;12.858;2023-05-23T04:24:41;10.97;;;8.90;;
1000;SDS011;489;47.806;12.858;2023-05-23T04:26:44;11.90;;;9.47;;
1000;SDS011;489;47.806;12.858;2023-05-23T04:28:47;10.13;;;8.77;;
1000;SDS011;489;47.806;12.858;2023-05-23T04:30:49;10.70;;;9.60;;
1000;SDS011;489;47.806;12.858;2023-05-23T04:32:56;10.20;;;9.10;;
1000;SDS011;489;47.806;12.858;2023-05-23T04:35:02;11.47;;;10.37;;
1000;SDS011;489;47.806;12.858;2023-05-23T04:37:05;9.20;;;8.30;;
1000;SDS011;489;47.806;12.858;2023-05-23T04:39:09;9.00;;;8.10;;
1000;SDS011;489;47.806;12.858;2023-05-23T04:41:22;9.70;;;8.63;;
1000;SDS011;489;47.806;12.858;2023-05-23T04:43:38;9.60;;;8.70;;
1000;SDS011;489;47.806;12.858;2023-05-23T04:46:12;10.40;;;8.97;;
1000;SDS011;489;47.806;12.858;2023-05-23T04:48:17;10.73;;;9.70;;
1000;SDS011;489;47.806;12.858;2023-05-23T04:50:20;10.67;;;9.63;;
1000;SDS011;489;47.806;12.858;2023-05-23T04:52:23;11.10;;;10.00;;
1000;SDS011;489;47.806;12.858;2023-05-23T04:54:27;10.47;;;9.47;;
1000;SDS011;489;47.806;12.858;2023-05-23T04:56:31;12.47;;;9.90;;
1000;SDS011;489;47.806;12.858;2023-05-23T04:58:56;11.47;;;9.10;;
1000;SDS011;489;47.806;12.858;2023-05-23T05:00:59;9.90;;;9.00;;
1000;SDS011;489;47.806;12.858;2023-05-23T05:03:03;11.33;;;9.60;;
1000;SDS011;489;47.806;12.858;2023-05-23T05:05:06;9.53;;;8.63;;
1000;SDS011;489;47.806;12.858;2023-05-23T05:07:09;10.67;;;9.57;;
1000;SDS011;489;47.806;12.858;2023-05-23T05:09:11;9.87;;;8.97;;
1000;SDS011;489;47.806;12.858;2023-05-23T05:11:15;10.40;;;9.40;;
1000;SDS011;489;47.806;12.858;2023-05-23T05:13:17;10.10;;;9.10;;
1000;SDS011;489;47.806;12.858;2023-05-23T05:15:22;9.40;;;8.50;;
1000;SDS011;489;47.806;12.858;2023-05-23T05:17:44;9.60;;;8.70;;
1000;SDS011;489;47.806;12.858;2023-05-23T05:19:50;10.07;;;9.07;;
1000;SDS011;489;47.806;12.858;2023-05-23T05:21:52;10.63;;;9.30;;
1000;SDS011;489;47.806;12.858;2023-05-23T05:23:54;9.63;;;8.63;;
1000;SDS011;489;47.806;12.858;2023-05-23T05:25:57;10.57;;;9.40;;
1000;SDS011;489;47.806;12.858;2023-05-23T05:28:00;9.60;;;8.70;;
1000;SDS011;489;47.806;12.858;2023-05-23T05:30:05;9.20;;;8.40;;
1000;SDS011;489;47.806;12.858;2023-05-23T05:32:16;9.43;;;8.43;;
1000;SDS011;489;47.806;12.858;2023-05-23T05:34:18;10.07;;;8.23;;
1000;SDS011;489;47.806;12.858;2023-05-23T05:36:22;9.13;;;8.10;;
1000;SDS011;489;47.806;12.858;2023-05-23T05:38:24;8.93;;;7.80;;
1000;SDS011;489;47.806;12.858;2023-05-23T05:40:26;9.87;;;8.97;;
1000;SDS011;489;47.806;12.858;2023-05-23T05:42:28;9.23;;;8.37;;
1000;SDS011;489;47.806;12.858;2023-05-23T05:44:30;9.53;;;8.53;;
1000;SDS011;489;47.806;12.858;2023-05-23T05:46:33;9.80;;;8.80;;
1000;SDS011;489;47.806;12.858;2023-05-23T05:48:34;9.17;;;8.27;;
1000;SDS011;489;47.806;12.858;2023-05-23T05:50:40;10.60;;;9.50;;
1000;SDS011;489;47.806;12.858;2023-05-23T05:52:46;10.10;;;9.00;;
1000;SDS011;489;47.806;12.858;2023-05-23T05:54:48;10.00;;;8.90;;
1000;SDS011;489;47.806;12.858;2023-05-23T05:56:50;10.70;;;9.70;;
1000;SDS011;489;47.806;12.858;2023-05-23T05:58:52;9.50;;;8.60;;
1000;SDS011;489;47.806;12.858;2023-05-23T06:00:55;9.40;;;8.50;;
1000;SDS011;489;47.806;12.858;2023-05-23T06:02:58;9.20;;;8.30;;
1000;SDS011;489;47.806;12.858;2023-05-23T06:05:16;10.63;;;9.57;;
1000;SDS011;489;47.806;12.858;2023-05-23T06:07:19;10.00;;;9.00;;
1000;SDS011;489;47.806;12.858;2023-05-23T06:09:23;10.30;;;9.40;;
1000;SDS011;489;47.806;12.858;2023-05-23T06:11:25;9.50;;;8.57;;
1000;SDS011;489;47.806;12.858;2023-05-23T06:13:27;10.20;;;9.30;;
1000;SDS011;489;47.806;12.858;2023-05-23T06:15:29;10.10;;;9.10;;
1000;SDS011;489;47.806;12.858;2023-05-23T06:17:31;10.70;;;9.60;;
1000;SDS011;489;47.806;12.858;2023-05-23T06:19:33;12.40;;;10.03;;
1000;SDS011;489;47.806;12.858;2023-05-23T06:21:35;10.37;;;9.37;;
1000;SDS011;489;47.806;12.858;2023-05-23T06:23:39;11.30;;;9.70;;
1000;SDS011;489;47.806;12.858;2023-05-23T06:25:43;10.90;;;9.87;;
1000;SDS011;489;47.806;12.858;2023-05-23T06:27:46;11.33;;;10.13;;
1000;SDS011;489;47.806;12.858;2023-05-23T06:29:47;9.87;;;8.90;;
1000;SDS011;489;47.806;12.858;2023-05-23T06:31:49;11.40;;;10.30;;
1000;SDS011;489;47.806;12.858;2023-05-23T06:33:51;10.47;;;9.47;;
1000;SDS011;489;47.806;12.858;2023-05-23T06:35:54;11.47;;;10.33;;
1000;SDS011;489;47.806;12.858;2023-05-23T06:37:56;11.07;;;9.97;;
1000;SDS011;489;47.806;12.858;2023-05-23T06:39:58;11.43;;;10.20;;
1000;SDS011;489;47.806;12.858;2023-05-23T06:42:02;11.27;;;10.17;;
1000;SDS011;489;47.806;12.858;2023-05-23T06:44:15;11.10;;;10.00;;
1000;SDS011;489;47.806;12.858;2023-05-23T06:46:17;11.90;;;10.30;;
1000;SDS011;489;47.806;12.858;2023-05-23T06:48:19;10.33;;;9.37;;
1000;SDS011;489;47.806;12.858;2023-05-23T06:50:22;11.70;;;9.80;;
1000;SDS011;489;47.806;12.858;2023-05-23T06:52:25;10.40;;;9.37;;
1000;SDS011;489;47.806;12.858;2023-05-23T06:54:27;11.50;;;10.10;;
1000;SDS011;489;47.806;12.858;2023-05-23T06:56:29;11.10;;;10.00;;
1000;SDS011;489;47.806;12.858;2023-05-23T06:58:33;10.70;;;9.53;;
1000;SDS011;489;47.806;12.858;2023-05-23T07:00:36;9.77;;;8.90;;
1000;SDS011;489;47.806;12.858;2023-05-23T07:02:50;10.37;;;9.30;;
1000;SDS011;489;47.806;12.858;2023-05-23T07:04:54;9.63;;;8.70;;
1000;SDS011;489;47.806;12.858;2023-05-23T07:07:16;11.43;;;10.33;;
1000;SDS011;489;47.806;12.858;2023-05-23T07:09:18;11.23;;;10.13;;
1000;SDS011;489;47.806;12.858;2023-05-23T07:11:21;11.10;;;10.00;;
1000;SDS011;489;47.806;12.858;2023-05-23T07:13:29;10.40;;;9.40;;
1000;SDS011;489;47.806;12.858;2023-05-23T07:15:32;10.53;;;9.53;;
1000;SDS011;489;47.806;12.858;2023-05-23T07:17:43;10.33;;;9.30;;
1000;SDS011;489;47.806;12.858;2023-05-23T07:19:45;10.10;;;9.20;;
1000;SDS011;489;47.806;12.858;2023-05-23T07:21:47;10.53;;;9.43;;
1000;SDS011;489;47.806;12.858;2023-05-23T07:23:51;9.97;;;9.07;;
1000;SDS011;489;47.806;12.858;2023-05-23T07:25:53;11.20;;;9.80;;
1000;SDS011;489;47.806;12.858;2023-05-23T07:27:59;11.53;;;10.53;;
1000;SDS011;489;47.806;12.858;2023-05-23T07:30:01;10.83;;;9.47;;
1000;SDS011;489;47.806;12.858;2023-05-23T07:32:06;11.27;;;10.23;;
1000;SDS011;489;47.806;12.858;2023-05-23T07:34:07;11.33;;;10.23;;
1000;SDS011;489;47.806;12.858;2023-05-23T07:36:18;10.40;;;9.40;;
1000;SDS011;489;47.806;12.858;2023-05-23T07:38:21;11.93;;;10.70;;
1000;SDS011;489;47.806;12.858;2023-05-23T07:40:23;10.97;;;9.87;;
1000;SDS011;489;47.806;12.858;2023-05-23T07:42:25;10.90;;;9.90;;
1000;SDS011;489;47.806;12.858;2023-05-23T07:44:27;10.17;;;9.17;;
1000;SDS011;489;47.806;12.858;2023-05-23T07:46:29;11.07;;;9.27;;
1000;SDS011;489;47.806;12.858;2023-05-23T07:48:33;12.33;;;9.50;;
1000;SDS011;489;47.806;12.858;2023-05-23T07:50:35;9.67;;;8.67;;
1000;SDS011;489;47.806;12.858;2023-05-23T07:52:39;10.43;;;9.27;;
1000;SDS011;489;47.806;12.858;2023-05-23T07:54:45;9.70;;;8.70;;
1000;SDS011;489;47.806;12.858;2023-05-23T07:56:47;10.33;;;9.30;;
1000;SDS011;489;47.806;12.858;2023-05-23T07:58:51;11.10;;;10.00;;
1000;SDS011;489;47.806;12.858;2023-05-23T08:00:53;10.97;;;9.87;;
1000;SDS011;489;47.806;12.858;2023-05-23T08:03:17;9.10;;;8.30;;
1000;SDS011;489;47.806;12.858;2023-05-23T08:05:32;10.27;;;9.37;;
1000;SDS011;489;47.806;12.858;2023-05-23T08:07:34;10.43;;;9.43;;
1000;SDS011;489;47.806;12.858;2023-05-23T08:09:37;9.27;;;8.47;;
1000;SDS011;489;47.806;12.858;2023-05-23T08:11:40;9.80;;;8.90;;
1000;SDS011;489;47.806;12.858;2023-05-23T08:13:42;10.30;;;9.40;;
1000;SDS011;489;47.806;12.858;2023-05-23T08:16:05;9.53;;;8.57;;
1000;SDS011;489;47.806;12.858;2023-05-23T08:18:07;9.50;;;8.60;;
1000;SDS011;489;47.806;12.858;2023-05-23T08:20:09;11.90;;;9.30;;
1000;SDS011;489;47.806;12.858;2023-05-23T08:22:14;10.30;;;8.47;;
1000;SDS011;489;47.806;12.858;2023-05-23T08:24:15;9.77;;;8.80;;
1000;SDS011;489;47.806;12.858;2023-05-23T08:26:17;9.80;;;8.90;;
1000;SDS011;489;47.806;12.858;2023-05-23T08:28:21;11.40;;;10.30;;
1000;SDS011;489;47.806;12.858;2023-05-23T08:30:27;10.73;;;9.73;;
1000;SDS011;489;47.806;12.858;2023-05-23T08:32:32;12.37;;;9.70;;
1000;SDS011;489;47.806;12.858;2023-05-23T08:34:34;10.93;;;9.83;;
1000;SDS011;489;47.806;12.858;2023-05-23T08:36:37;11.90;;;10.70;;
1000;SDS011;489;47.806;12.858;2023-05-23T08:38:43;11.10;;;9.93;;
1000;SDS011;489;47.806;12.858;2023-05-23T08:40:50;11.30;;;10.30;;
1000;SDS011;489;47.806;12.858;2023-05-23T08:42:54;10.50;;;9.40;;
1000;SDS011;489;47.806;12.858;2023-05-23T08:44:56;11.37;;;10.23;;
1000;SDS011;489;47.806;12.858;2023-05-23T08:47:00;10.90;;;9.20;;
1000;SDS011;489;47.806;12.858;2023-05-23T08:49:25;9.47;;;8.50;;
1000;SDS011;489;47.806;12.858;2023-05-23T08:51:28;10.90;;;9.77;;
1000;SDS011;489;47.806;12.858;2023-05-23T08:53:34;10.00;;;9.00;;
1000;SDS011;489;47.806;12.858;2023-05-23T08:55:41;11.30;;;8.23;;
1000;SDS011;489;47.806;12.858;2023-05-23T08:57:43;10.17;;;9.10;;
1000;SDS011;489;47.806;12.858;2023-05-23T08:59:58;9.97;;;9.07;;
1000;SDS011;489;47.806;12.858;2023-05-23T09:02:02;8.93;;;8.13;;
1000;SDS011;489;47.806;12.858;2023-05-23T09:04:04;9.77;;;8.40;;
1000;SDS011;489;47.806;12.858;2023-05-23T09:06:30;9.23;;;8.33;;
1000;SDS011;489;47.806;12.858;2023-05-23T09:08:32;10.83;;;9.73;;
1000;SDS011;489;47.806;12.858;2023-05-23T09:10:36;11.93;;;9.53;;
1000;SDS011;489;47.806;12.858;2023-05-23T09:12:42;9.53;;;8.73;;
1000;SDS011;489;47.806;12.858;2023-05-23T09:14:46;10.03;;;9.03;;
1000;SDS011;489;47.806;12.858;2023-05-23T09:16:48;9.87;;;8.97;;
1000;SDS011;489;47.806;12.858;2023-05-23T09:18:54;11.63;;;10.50;;
1000;SDS011;489;47.806;12.858;2023-05-23T09:20:57;10.93;;;9.40;;
1000;SDS011;489;47.806;12.858;2023-05-23T09:22:59;9.63;;;8.67;;
1000;SDS011;489;47.806;12.858;2023-05-23T09:25:02;10.00;;;9.00;;
1000;SDS011;489;47.806;12.858;2023-05-23T09:27:05;10.50;;;9.50;;
1000;SDS011;489;47.806;12.858;2023-05-23T09:29:09;11.70;;;10.50;;
1000;SDS011;489;47.806;12.858;2023-05-23T09:31:11;11.27;;;10.07;;
1000;SDS011;489;47.806;12.858;2023-05-23T09:33:14;10.97;;;9.97;;
1000;SDS011;489;47.806;12.858;2023-05-23T09:35:16;10.73;;;9.70;;
1000;SDS011;489;47.806;12.858;2023-05-23T09:37:28;10.30;;;9.30;;
1000;SDS011;489;47.806;12.858;2023-05-23T09:39:33;10.93;;;9.93;;
1000;SDS011;489;47.806;12.858;2023-05-23T09:41:38;11.03;;;9.93;;
1000;SDS011;489;47.806;12.858;2023-05-23T09:43:48;11.00;;;9.90;;
1000;SDS011;489;47.806;12.858;2023-05-23T09:45:52;12.93;;;10.13;;
1000;SDS011;489;47.806;12.858;2023-05-23T09:47:55;10.90;;;9.90;;
1000;SDS011;489;47.806;12.858;2023-05-23T09:49:57;10.70;;;9.67;;
1000;SDS011;489;47.806;12.858;2023-05-23T09:52:00;10.60;;;9.60;;
1000;SDS011;489;47.806;12.858;2023-05-23T09:54:05;11.07;;;9.83;;
1000;SDS011;489;47.806;12.858;2023-05-23T09:56:07;11.37;;;9.83;;
1000;SDS011;489;47.806;12.858;2023-05-23T09:58:11;10.80;;;9.80;;
1000;SDS011;489;47.806;12.858;2023-05-23T10:00:14;10.83;;;9.73;;
1000;SDS011;489;47.806;12.858;2023-05-23T10:02:31;11.17;;;10.13;;
1000;SDS011;489;47.806;12.858;2023-05-23T10:04:54;12.03;;;10.60;;
1000;SDS011;489;47.806;12.858;2023-05-23T10:06:58;11.53;;;10.40;;
1000;SDS011;489;47.806;12.858;2023-05-23T10:09:03;11.40;;;10.27;;
1000;SDS011;489;47.806;12.858;2023-05-23T10:13:53;12.23;;;11.03;;
1000;SDS011;489;47.806;12.858;2023-05-23T10:15:57;11.90;;;10.77;;
1000;SDS011;489;47.806;12.858;2023-05-23T10:18:02;12.63;;;11.10;;
1000;SDS011;489;47.806;12.858;2023-05-23T10:20:09;10.13;;;9.13;;
1000;SDS011;489;47.806;12.858;2023-05-23T10:22:13;11.33;;;10.23;;
1000;SDS011;489;47.806;12.858;2023-05-23T10:24:15;11.23;;;10.20;;
1000;SDS011;489;47.806;12.858;2023-05-23T10:26:18;11.63;;;10.53;;
1000;SDS011;489;47.806;12.858;2023-05-23T10:28:21;11.70;;;10.60;;
1000;SDS011;489;47.806;12.858;2023-05-23T10:30:24;10.43;;;9.37;;
1000;SDS011;489;47.806;12.858;2023-05-23T10:32:26;9.90;;;9.00;;
1000;SDS011;489;47.806;12.858;2023-05-23T10:34:33;9.90;;;8.90;;
1000;SDS011;489;47.806;12.858;2023-05-23T10:36:39;10.03;;;9.07;;
1000;SDS011;489;47.806;12.858;2023-05-23T10:38:48;10.07;;;9.17;;
1000;SDS011;489;47.806;12.858;2023-05-23T10:40:54;9.53;;;8.70;;
1000;SDS011;489;47.806;12.858;2023-05-23T10:43:02;8.60;;;7.80;;
1000;SDS011;489;47.806;12.858;2023-05-23T10:45:14;7.20;;;6.40;;
1000;SDS011;489;47.806;12.858;2023-05-23T10:47:25;7.13;;;6.37;;
1000;SDS011;489;47.806;12.858;2023-05-23T10:49:37;7.80;;;6.80;;
1000;SDS011;489;47.806;12.858;2023-05-23T10:51:40;8.10;;;6.50;;
1000;SDS011;489;47.806;12.858;2023-05-23T10:53:43;6.93;;;6.37;;
1000;SDS011;489;47.806;12.858;2023-05-23T10:55:47;5.83;;;5.30;;
1000;SDS011;489;47.806;12.858;2023-05-23T11:00:13;5.70;;;5.20;;
1000;SDS011;489;47.806;12.858;2023-05-23T11:02:17;5.73;;;5.23;;
1000;SDS011;489;47.806;12.858;2023-05-23T11:04:23;5.33;;;4.83;;
1000;SDS011;489;47.806;12.858;2023-05-23T11:06:31;8.27;;;4.90;;
1000;SDS011;489;47.806;12.858;2023-05-23T11:08:38;4.60;;;4.03;;
1000;SDS011;489;47.806;12.858;2023-05-23T11:10:51;5.13;;;4.63;;
1000;SDS011;489;47.806;12.858;2023-05-23T11:12:53;4.67;;;4.20;;
1000;SDS011;489;47.806;12.858;2023-05-23T11:15:19;5.00;;;4.60;;
1000;SDS011;489;47.806;12.858;2023-05-23T11:17:30;4.60;;;4.07;;
1000;SDS011;489;47.806;12.858;2023-05-23T11:19:33;5.30;;;4.80;;
1000;SDS011;489;47.806;12.858;2023-05-23T11:21:37;4.33;;;3.93;;
1000;SDS011;489;47.806;12.858;2023-05-23T11:23:40;4.30;;;4.00;;
1000;SDS011;489;47.806;12.858;2023-05-23T11:25:42;5.23;;;4.80;;
1000;SDS011;489;47.806;12.858;2023-05-23T11:27:48;5.37;;;4.97;;
1000;SDS011;489;47.806;12.858;2023-05-23T11:29:58;6.47;;;4.70;;
1000;SDS011;489;47.806;12.858;2023-05-23T11:32:07;4.40;;;4.10;;
1000;SDS011;489;47.806;12.858;2023-05-23T11:34:11;4.90;;;4.50;;
1000;SDS011;489;47.806;12.858;2023-05-23T11:36:13;3.87;;;3.57;;
1000;SDS011;489;47.806;12.858;2023-05-23T11:38:16;4.57;;;4.17;;
1000;SDS011;489;47.806;12.858;2023-05-23T11:40:26;5.00;;;4.60;;
1000;SDS011;489;47.806;12.858;2023-05-23T11:42:29;5.47;;;4.97;;
1000;SDS011;489;47.806;12.858;2023-05-23T11:44:31;4.70;;;4.30;;
1000;SDS011;489;47.806;12.858;2023-05-23T11:46:33;4.67;;;4.27;;
1000;SDS011;489;47.806;12.858;2023-05-23T11:48:35;4.60;;;4.20;;
1000;SDS011;489;47.806;12.858;2023-05-23T11:50:43;4.60;;;4.20;;
1000;SDS011;489;47.806;12.858;2023-05-23T11:52:46;4.80;;;4.40;;
1000;SDS011;489;47.806;12.858;2023-05-23T11:54:53;4.30;;;3.90;;
1000;SDS011;489;47.806;12.858;2023-05-23T11:56:56;5.33;;;3.90;;
1000;SDS011;489;47.806;12.858;2023-05-23T11:58:58;4.63;;;4.23;;
1000;SDS011;489;47.806;12.858;2023-05-23T12:01:00;4.50;;;4.10;;
1000;SDS011;489;47.806;12.858;2023-05-23T12:03:05;4.40;;;4.10;;
1000;SDS011;489;47.806;12.858;2023-05-23T12:05:08;4.33;;;3.93;;
1000;SDS011;489;47.806;12.858;2023-05-23T12:07:12;5.03;;;4.63;;
1000;SDS011;489;47.806;12.858;2023-05-23T12:09:15;5.27;;;4.13;;
1000;SDS011;489;47.806;12.858;2023-05-23T12:11:19;4.60;;;4.20;;
1000;SDS011;489;47.806;12.858;2023-05-23T12:13:22;5.00;;;4.50;;
1000;SDS011;489;47.806;12.858;2023-05-23T12:15:25;4.13;;;3.83;;
1000;SDS011;489;47.806;12.858;2023-05-23T12:17:28;3.97;;;3.67;;
1000;SDS011;489;47.806;12.858;2023-05-23T12:19:30;4.60;;;4.13;;
1000;SDS011;489;47.806;12.858;2023-05-23T12:21:41;4.70;;;4.30;;
1000;SDS011;489;47.806;12.858;2023-05-23T12:23:45;5.00;;;4.60;;
1000;SDS011;489;47.806;12.858;2023-05-23T12:25:48;5.43;;;3.97;;
1000;SDS011;489;47.806;12.858;2023-05-23T12:27:52;4.23;;;3.93;;
1000;SDS011;489;47.806;12.858;2023-05-23T12:30:03;4.27;;;3.97;;
1000;SDS011;489;47.806;12.858;2023-05-23T12:32:06;4.73;;;4.20;;
1000;SDS011;489;47.806;12.858;2023-05-23T12:34:10;4.73;;;4.33;;
1000;SDS011;489;47.806;12.858;2023-05-23T12:36:12;5.40;;;4.90;;
1000;SDS011;489;47.806;12.858;2023-05-23T12:38:15;5.20;;;4.80;;
1000;SDS011;489;47.806;12.858;2023-05-23T12:40:17;5.00;;;4.50;;
1000;SDS011;489;47.806;12.858;2023-05-23T12:42:20;5.37;;;4.90;;
1000;SDS011;489;47.806;12.858;2023-05-23T12:44:28;5.03;;;4.63;;
1000;SDS011;489;47.806;12.858;2023-05-23T12:46:31;5.37;;;4.87;;
1000;SDS011;489;47.806;12.858;2023-05-23T12:48:33;5.80;;;5.30;;